Time;durP1;ratioP1;P1;durP2;ratioP2;P2;SDS_P1;SDS_P2;PMS_P1;PMS_P2;Temp;Humidity;BMP_temperature;BMP_pressure;BME280_temperature;BME280_humidity;BME280_pressure;Samples;Min_cycle;Max_cycle;Signal;HPM_P1;HPM_P2
2022/12/18 00:01:52;;;;;;;9.18;7.97;;;21.80;52.80;;;;;;5049234;28;20195;-35
2022/12/18 00:04:23;;;;;;;6.47;5.80;;;21.80;52.90;;;;;;5052196;28;20196;-35
2022/12/18 00:06:50;;;;;;;8.80;6.43;;;21.80;52.90;;;;;;5054952;28;20651;-35
2022/12/18 00:09:17;;;;;;;9.13;7.57;;;21.80;53.00;;;;;;5051521;28;20274;-35
2022/12/18 00:11:44;;;;;;;8.70;7.38;;;21.90;52.80;;;;;;5051487;28;20223;-35
2022/12/18 00:14:13;;;;;;;8.45;7.50;;;21.90;52.80;;;;;;5052069;28;20206;-35
2022/12/18 00:16:40;;;;;;;6.90;6.20;;;21.90;52.80;;;;;;5048714;28;20541;-34
2022/12/18 00:19:07;;;;;;;8.30;7.45;;;21.90;52.80;;;;;;5050717;28;20216;-35
2022/12/18 00:21:34;;;;;;;8.25;7.45;;;21.90;52.80;;;;;;5051140;28;20222;-36
2022/12/18 00:24:01;;;;;;;9.05;7.15;;;21.80;52.80;;;;;;5045986;28;20200;-35
2022/12/18 00:26:30;;;;;;;8.35;7.55;;;21.80;52.80;;;;;;5043328;28;20708;-35
2022/12/18 00:29:00;;;;;;;12.80;7.13;;;21.80;52.80;;;;;;5050811;28;20193;-35
2022/12/18 00:31:28;;;;;;;9.48;8.30;;;21.80;52.90;;;;;;5051958;28;20200;-35
2022/12/18 00:33:55;;;;;;;7.40;6.78;;;22.10;52.90;;;;;;5038935;28;20202;-35
2022/12/18 00:36:24;;;;;;;8.45;7.10;;;22.20;52.80;;;;;;5046483;28;20199;-35
2022/12/18 00:38:50;;;;;;;8.68;7.40;;;22.30;52.80;;;;;;5050421;28;20210;-35
2022/12/18 00:42:55;;;;;;;8.70;7.78;;;22.30;52.70;;;;;;5048365;28;20203;-35
2022/12/18 00:44:06;;;;;;;9.80;8.45;;;22.30;52.50;;;;;;5053400;28;20196;-35
2022/12/18 00:49:56;;;;;;;8.90;7.50;;;22.30;52.50;;;;;;5042182;28;20199;-35
2022/12/18 00:52:23;;;;;;;8.45;7.60;;;22.20;52.70;;;;;;5057838;28;20211;-34
2022/12/18 00:54:50;;;;;;;8.93;8.00;;;22.10;53.20;;;;;;5047493;28;20195;-35
2022/12/18 00:57:16;;;;;;;9.32;8.32;;;22.00;52.80;;;;;;5053256;28;20199;-35
2022/12/18 00:59:43;;;;;;;10.60;8.13;;;22.00;52.80;;;;;;5046792;28;20188;-35
2022/12/18 01:02:10;;;;;;;8.10;7.30;;;21.90;52.80;;;;;;5048689;28;20191;-35
2022/12/18 01:04:36;;;;;;;9.98;7.57;;;21.90;52.80;;;;;;5044382;28;20192;-35
2022/12/18 01:07:04;;;;;;;8.68;7.80;;;21.80;52.80;;;;;;5054295;28;20541;-35
2022/12/18 01:09:31;;;;;;;9.38;7.47;;;21.80;52.80;;;;;;5050210;28;20547;-35
2022/12/18 01:11:58;;;;;;;9.25;7.72;;;21.80;52.90;;;;;;5051650;28;20220;-35
2022/12/18 01:14:25;;;;;;;8.25;7.50;;;21.90;53.40;;;;;;5052390;28;20706;-36
2022/12/18 01:16:51;;;;;;;9.55;7.47;;;21.80;52.90;;;;;;5043624;28;20199;-35
2022/12/18 01:19:18;;;;;;;8.73;7.82;;;21.80;52.70;;;;;;5048269;28;20222;-34
2022/12/18 01:21:45;;;;;;;9.25;7.90;;;21.80;52.70;;;;;;5047927;28;20206;-36
2022/12/18 01:24:13;;;;;;;10.60;7.05;;;21.80;52.70;;;;;;5052021;28;20200;-35
2022/12/18 01:26:40;;;;;;;8.40;7.60;;;21.90;52.80;;;;;;5048147;28;20195;-35
2022/12/18 01:29:06;;;;;;;7.78;6.97;;;21.90;52.80;;;;;;5051216;28;20193;-35
2022/12/18 01:31:37;;;;;;;9.75;7.25;;;21.80;52.70;;;;;;5048776;28;20572;-35
2022/12/18 01:34:04;;;;;;;11.13;7.95;;;21.80;52.70;;;;;;5050659;28;20226;-35
2022/12/18 01:36:33;;;;;;;7.28;6.57;;;21.70;52.70;;;;;;5051712;28;20207;-35
2022/12/18 01:39:02;;;;;;;9.60;7.72;;;21.80;53.20;;;;;;5051935;28;20191;-35
2022/12/18 01:42:01;;;;;;;8.70;7.70;;;21.80;52.70;;;;;;5052554;28;20203;-35
2022/12/18 01:44:56;;;;;;;8.80;8.00;;;21.80;52.70;;;;;;5045470;28;20243;-35
2022/12/18 01:47:26;;;;;;;8.02;6.75;;;21.80;52.70;;;;;;5050720;28;20187;-35
2022/12/18 01:49:54;;;;;;;6.72;6.03;;;21.70;52.60;;;;;;5049862;28;20564;-35
2022/12/18 01:52:22;;;;;;;7.88;7.00;;;21.80;52.70;;;;;;5047214;28;20213;-35
2022/12/18 01:54:51;;;;;;;9.07;7.38;;;21.90;52.80;;;;;;5052705;28;20683;-34
2022/12/18 01:57:21;;;;;;;7.45;6.50;;;21.90;52.60;;;;;;5047896;28;20219;-35
2022/12/18 01:59:52;;;;;;;8.18;7.38;;;21.90;52.70;;;;;;5049442;28;20200;-34
2022/12/18 02:02:20;;;;;;;8.02;6.32;;;21.90;52.60;;;;;;5052169;28;20194;-35
2022/12/18 02:04:47;;;;;;;7.85;7.05;;;21.90;52.60;;;;;;5047155;28;20593;-35
2022/12/18 02:07:23;;;;;;;9.73;7.05;;;21.90;52.60;;;;;;5047430;28;20195;-35
2022/12/18 02:09:55;;;;;;;7.60;6.78;;;21.80;52.60;;;;;;5054630;28;20207;-35
2022/12/18 02:12:26;;;;;;;7.95;6.93;;;21.90;52.50;;;;;;5059162;28;20222;-36
2022/12/18 02:15:00;;;;;;;8.80;7.55;;;21.80;52.50;;;;;;5038633;28;20419;-35
2022/12/18 02:17:35;;;;;;;8.00;7.20;;;21.80;52.60;;;;;;5047551;28;20196;-35
2022/12/18 02:20:10;;;;;;;6.70;5.95;;;21.80;52.60;;;;;;5042715;28;20215;-35
2022/12/18 02:22:46;;;;;;;8.82;7.93;;;21.90;52.50;;;;;;5048381;28;20198;-35
2022/12/18 02:25:22;;;;;;;7.70;5.88;;;21.90;52.50;;;;;;5051964;28;20194;-35
2022/12/18 02:27:51;;;;;;;7.63;6.68;;;21.90;52.50;;;;;;5052086;28;20207;-36
2022/12/18 02:30:19;;;;;;;8.82;6.80;;;21.90;52.40;;;;;;5043829;28;20195;-35
2022/12/18 02:32:50;;;;;;;7.53;6.05;;;21.80;52.50;;;;;;5049436;28;20219;-34
2022/12/18 02:35:21;;;;;;;7.50;6.80;;;21.80;52.60;;;;;;5045664;28;20557;-34
2022/12/18 02:37:48;;;;;;;7.05;6.22;;;21.80;52.40;;;;;;5044369;28;20206;-35
2022/12/18 02:40:18;;;;;;;6.50;5.70;;;21.80;52.50;;;;;;5046946;28;20200;-35
2022/12/18 02:42:45;;;;;;;8.93;7.00;;;21.90;52.50;;;;;;5051196;28;20195;-35
2022/12/18 02:45:12;;;;;;;9.13;6.63;;;21.80;52.40;;;;;;5049436;28;20237;-35
2022/12/18 02:47:42;;;;;;;7.78;6.85;;;21.80;52.50;;;;;;5046849;28;20195;-35
2022/12/18 02:50:19;;;;;;;7.28;6.03;;;21.80;52.40;;;;;;5054067;28;20202;-35
2022/12/18 02:52:56;;;;;;;8.30;6.10;;;21.90;52.50;;;;;;5050851;28;20258;-35
2022/12/18 02:55:34;;;;;;;8.15;5.97;;;21.80;52.40;;;;;;5051564;28;20200;-35
2022/12/18 02:58:06;;;;;;;7.30;6.57;;;21.90;52.40;;;;;;5040381;28;20204;-35
2022/12/18 03:00:38;;;;;;;7.28;5.80;;;21.90;52.40;;;;;;5050004;28;20195;-35
2022/12/18 03:03:11;;;;;;;8.35;6.53;;;21.90;52.40;;;;;;5045491;28;20283;-35
2022/12/18 03:05:41;;;;;;;7.18;6.45;;;21.90;52.40;;;;;;5046408;28;20201;-36
2022/12/18 03:08:11;;;;;;;9.23;6.75;;;21.80;52.40;;;;;;5053017;28;20195;-35
2022/12/18 03:10:43;;;;;;;6.90;6.20;;;21.80;52.40;;;;;;5051933;28;20196;-35
2022/12/18 03:13:14;;;;;;;7.55;6.85;;;21.90;52.40;;;;;;5045844;28;20215;-35
2022/12/18 03:15:46;;;;;;;6.28;5.72;;;21.90;52.40;;;;;;5047262;28;20195;-35
2022/12/18 03:18:17;;;;;;;7.68;6.88;;;21.90;52.40;;;;;;5048599;28;20192;-34
2022/12/18 03:20:45;;;;;;;7.22;6.53;;;21.90;52.40;;;;;;5048515;28;20207;-35
2022/12/18 03:23:16;;;;;;;7.10;5.40;;;21.80;52.40;;;;;;5059878;28;20270;-35
2022/12/18 03:25:46;;;;;;;5.93;5.30;;;21.80;52.40;;;;;;5048338;28;20192;-35
2022/12/18 03:28:15;;;;;;;6.32;5.68;;;21.80;52.40;;;;;;5046870;28;20559;-35
2022/12/18 03:30:46;;;;;;;6.18;5.57;;;21.80;52.50;;;;;;5045981;28;20195;-35
2022/12/18 03:33:19;;;;;;;6.97;6.28;;;21.70;52.40;;;;;;5044385;28;20226;-34
2022/12/18 03:35:47;;;;;;;6.22;5.60;;;21.70;52.40;;;;;;5046948;28;20656;-35
2022/12/18 03:38:14;;;;;;;6.65;5.78;;;21.90;52.40;;;;;;5050735;28;20209;-35
2022/12/18 03:40:52;;;;;;;6.82;6.10;;;21.90;52.40;;;;;;5048920;28;20664;-35
2022/12/18 03:43:24;;;;;;;6.80;6.03;;;21.80;52.40;;;;;;5045308;28;20207;-35
2022/12/18 03:46:00;;;;;;;6.75;6.15;;;21.80;52.40;;;;;;5048287;28;20583;-35
2022/12/18 03:48:32;;;;;;;8.68;6.75;;;21.80;52.40;;;;;;5047146;28;20196;-35
2022/12/18 03:51:02;;;;;;;7.80;6.05;;;21.80;52.40;;;;;;5046727;28;20199;-35
2022/12/18 03:53:36;;;;;;;6.30;5.70;;;21.80;52.40;;;;;;5048019;28;20252;-35
2022/12/18 03:56:04;;;;;;;5.82;5.32;;;21.70;52.30;;;;;;5045910;28;20226;-35
2022/12/18 03:58:33;;;;;;;7.15;5.55;;;21.80;52.40;;;;;;5045980;28;20199;-35
2022/12/18 04:01:06;;;;;;;7.93;6.75;;;21.80;52.40;;;;;;5048415;28;20207;-36
2022/12/18 04:03:33;;;;;;;6.75;6.13;;;21.80;52.40;;;;;;5044153;28;20222;-35
2022/12/18 04:06:01;;;;;;;6.07;5.55;;;21.70;52.40;;;;;;5051982;28;20237;-35
2022/12/18 04:08:28;;;;;;;8.35;6.22;;;21.80;52.40;;;;;;5046555;28;20199;-35
2022/12/18 04:10:55;;;;;;;7.05;6.35;;;21.80;52.40;;;;;;5049260;28;20649;-35
2022/12/18 04:13:28;;;;;;;7.28;6.00;;;21.80;52.30;;;;;;5049509;28;20588;-35
2022/12/18 04:15:55;;;;;;;7.50;6.20;;;21.80;52.20;;;;;;5044681;28;20631;-35
2022/12/18 04:18:23;;;;;;;6.85;5.75;;;21.80;52.20;;;;;;5051045;28;20216;-35
2022/12/18 04:20:49;;;;;;;6.38;5.75;;;21.80;52.30;;;;;;5048727;28;20212;-35
2022/12/18 04:23:16;;;;;;;5.60;5.10;;;21.80;52.30;;;;;;5051747;28;20209;-35
2022/12/18 04:25:43;;;;;;;6.90;6.05;;;21.80;52.30;;;;;;5050517;28;20306;-35
2022/12/18 04:28:09;;;;;;;5.95;5.35;;;21.80;52.30;;;;;;5046544;28;20196;-35
2022/12/18 04:30:36;;;;;;;7.38;6.68;;;21.80;52.30;;;;;;5049870;28;20203;-35
2022/12/18 04:33:03;;;;;;;6.60;5.88;;;21.80;52.30;;;;;;5052337;28;20230;-35
2022/12/18 04:35:31;;;;;;;6.63;6.07;;;21.80;52.10;;;;;;5050287;28;20203;-35
2022/12/18 04:37:58;;;;;;;6.65;5.95;;;21.80;52.30;;;;;;5043995;28;20214;-35
2022/12/18 04:40:24;;;;;;;5.85;5.25;;;21.80;52.10;;;;;;5048841;28;20200;-35
2022/12/18 04:42:51;;;;;;;6.00;5.28;;;21.70;52.10;;;;;;5058053;28;20576;-35
2022/12/18 04:45:18;;;;;;;5.95;5.45;;;21.70;52.20;;;;;;5049793;28;20198;-35
2022/12/18 04:47:44;;;;;;;6.50;5.90;;;21.60;52.20;;;;;;5050177;28;20600;-35
2022/12/18 04:50:11;;;;;;;6.28;5.47;;;21.50;52.30;;;;;;5048382;28;20625;-34
2022/12/18 04:52:39;;;;;;;6.70;5.78;;;21.30;52.40;;;;;;5050803;28;20218;-35
2022/12/18 04:55:06;;;;;;;7.43;6.65;;;21.10;52.50;;;;;;5050611;28;20216;-36
2022/12/18 04:57:33;;;;;;;7.10;6.40;;;21.10;52.80;;;;;;5055401;28;20206;-35
2022/12/18 05:00:00;;;;;;;6.90;5.90;;;21.30;52.80;;;;;;5045481;28;20199;-35
2022/12/18 05:02:26;;;;;;;5.70;5.00;;;21.50;52.70;;;;;;5050636;28;20660;-35
2022/12/18 05:04:53;;;;;;;6.40;5.80;;;21.70;52.60;;;;;;5043345;28;20199;-35
2022/12/18 05:07:19;;;;;;;7.85;6.05;;;21.80;52.40;;;;;;5046208;28;20204;-35
2022/12/18 05:09:47;;;;;;;6.80;6.18;;;21.80;52.20;;;;;;5048102;28;20241;-35
2022/12/18 05:12:14;;;;;;;7.05;5.50;;;22.00;52.10;;;;;;5045217;28;20202;-35
2022/12/18 05:14:41;;;;;;;6.35;5.85;;;22.10;51.90;;;;;;5045358;28;20227;-35
2022/12/18 05:17:07;;;;;;;6.75;5.93;;;22.20;51.80;;;;;;5048024;28;20196;-35
2022/12/18 05:19:34;;;;;;;6.20;5.70;;;22.20;51.70;;;;;;5047590;28;20211;-35
2022/12/18 05:22:01;;;;;;;6.32;5.53;;;22.20;51.70;;;;;;5051887;28;20267;-35
2022/12/18 05:24:28;;;;;;;6.93;6.22;;;22.20;51.70;;;;;;5055225;28;20223;-35
2022/12/18 05:26:56;;;;;;;7.25;6.18;;;22.30;51.60;;;;;;5050445;28;20184;-35
2022/12/18 05:29:23;;;;;;;6.93;6.32;;;22.20;51.60;;;;;;5050889;28;20192;-35
2022/12/18 05:31:49;;;;;;;5.50;5.05;;;22.20;51.60;;;;;;5049505;28;20200;-35
2022/12/18 05:34:16;;;;;;;5.97;5.40;;;22.20;51.50;;;;;;5049577;28;20223;-36
2022/12/18 05:36:43;;;;;;;7.93;6.00;;;22.20;51.60;;;;;;5046483;28;20196;-36
2022/12/18 05:39:10;;;;;;;5.88;5.38;;;22.30;51.50;;;;;;5042681;28;20206;-35
2022/12/18 05:41:36;;;;;;;6.90;6.20;;;22.20;51.50;;;;;;5049439;28;20187;-34
2022/12/18 05:44:05;;;;;;;5.78;5.28;;;22.20;51.70;;;;;;5044672;28;20203;-35
2022/12/18 05:46:31;;;;;;;5.95;5.45;;;22.10;51.80;;;;;;5048360;28;20191;-35
2022/12/18 05:49:01;;;;;;;6.28;5.72;;;22.00;51.80;;;;;;5048472;28;20554;-35
2022/12/18 05:51:28;;;;;;;5.90;5.35;;;21.90;51.80;;;;;;5058369;28;20219;-35
2022/12/18 05:53:55;;;;;;;7.53;6.60;;;21.90;51.90;;;;;;5050094;28;20220;-35
2022/12/18 05:56:23;;;;;;;6.43;5.82;;;21.90;51.90;;;;;;5041435;28;20203;-35
2022/12/18 05:58:53;;;;;;;6.40;5.30;;;21.80;52.00;;;;;;5048999;28;20205;-35
2022/12/18 06:01:23;;;;;;;6.20;5.60;;;21.80;52.10;;;;;;5046585;28;20685;-35
2022/12/18 06:03:50;;;;;;;6.85;6.25;;;21.80;52.10;;;;;;5044955;28;20199;-35
2022/12/18 06:06:19;;;;;;;5.50;5.03;;;21.70;52.20;;;;;;5051065;28;20210;-35
2022/12/18 06:08:46;;;;;;;5.10;4.70;;;21.70;52.30;;;;;;5049957;28;20203;-35
2022/12/18 06:11:13;;;;;;;7.30;6.60;;;21.60;52.30;;;;;;5047898;28;20197;-35
2022/12/18 06:13:40;;;;;;;6.53;5.55;;;21.60;52.30;;;;;;5052995;28;20250;-35
2022/12/18 06:16:07;;;;;;;4.72;4.32;;;21.60;52.40;;;;;;5050279;28;20200;-35
2022/12/18 06:18:35;;;;;;;6.78;6.13;;;21.60;52.40;;;;;;5046050;28;20292;-35
2022/12/18 06:21:02;;;;;;;4.95;4.55;;;21.60;52.40;;;;;;5049885;28;20218;-36
2022/12/18 06:23:29;;;;;;;5.75;5.10;;;21.60;52.40;;;;;;5047196;28;20228;-35
2022/12/18 06:25:56;;;;;;;5.95;5.40;;;21.60;52.40;;;;;;5051710;28;20726;-35
2022/12/18 06:28:22;;;;;;;5.20;4.70;;;21.60;52.50;;;;;;5050521;28;20199;-35
2022/12/18 06:30:50;;;;;;;6.57;5.75;;;21.60;52.40;;;;;;5050506;28;20188;-34
2022/12/18 06:33:17;;;;;;;5.80;5.20;;;21.60;52.40;;;;;;5047708;28;20560;-35
2022/12/18 06:35:45;;;;;;;6.15;5.55;;;21.60;52.40;;;;;;5046355;28;20207;-34
2022/12/18 06:38:11;;;;;;;6.82;6.13;;;21.60;52.40;;;;;;5046435;28;20197;-35
2022/12/18 06:40:39;;;;;;;4.97;4.47;;;21.60;52.40;;;;;;5048770;28;20670;-34
2022/12/18 06:43:06;;;;;;;5.80;5.25;;;21.70;52.40;;;;;;5050075;28;20285;-36
2022/12/18 06:45:33;;;;;;;5.85;5.35;;;21.70;52.30;;;;;;5043014;28;20200;-34
2022/12/18 06:47:59;;;;;;;5.50;4.88;;;21.70;52.30;;;;;;5048211;28;20204;-35
2022/12/18 06:50:26;;;;;;;5.93;5.43;;;21.60;52.30;;;;;;5052889;28;20200;-35
2022/12/18 06:52:54;;;;;;;5.57;5.13;;;21.70;52.40;;;;;;5048067;28;20196;-35
2022/12/18 06:55:21;;;;;;;6.72;4.43;;;21.70;52.30;;;;;;5051423;28;20579;-34
2022/12/18 06:57:47;;;;;;;5.07;4.65;;;21.70;52.30;;;;;;5050642;28;20209;-35
2022/12/18 07:00:15;;;;;;;5.57;5.00;;;21.60;52.30;;;;;;5050803;28;20632;-36
2022/12/18 07:02:41;;;;;;;5.22;4.70;;;21.60;52.30;;;;;;5051578;28;20683;-34
2022/12/18 07:05:08;;;;;;;5.05;4.65;;;21.60;52.30;;;;;;5046058;28;20196;-35
2022/12/18 07:07:35;;;;;;;5.25;4.75;;;21.60;52.30;;;;;;5045501;28;20199;-35
2022/12/18 07:10:03;;;;;;;4.70;4.30;;;21.60;52.30;;;;;;5046429;28;20195;-35
2022/12/18 07:12:30;;;;;;;6.45;5.30;;;21.60;52.40;;;;;;5052847;28;20200;-35
2022/12/18 07:14:57;;;;;;;5.38;4.72;;;21.60;52.40;;;;;;5049062;28;20220;-35
2022/12/18 07:17:23;;;;;;;5.20;4.70;;;21.50;52.40;;;;;;5048469;28;20195;-35
2022/12/18 07:19:50;;;;;;;6.95;5.63;;;21.50;52.40;;;;;;5045013;28;20219;-34
2022/12/18 07:22:17;;;;;;;5.60;5.10;;;21.60;52.40;;;;;;5049904;28;20192;-35
2022/12/18 07:24:43;;;;;;;4.97;4.35;;;21.50;52.40;;;;;;5046554;28;20207;-35
2022/12/18 07:27:11;;;;;;;5.47;4.97;;;21.50;52.40;;;;;;5044585;28;20673;-35
2022/12/18 07:29:38;;;;;;;5.95;5.45;;;21.50;52.50;;;;;;5045962;28;20651;-35
2022/12/18 07:32:06;;;;;;;4.93;4.53;;;21.50;52.50;;;;;;5044587;28;20647;-34
2022/12/18 07:34:33;;;;;;;6.00;5.50;;;21.60;53.10;;;;;;5044464;28;20230;-35
2022/12/18 07:37:00;;;;;;;5.35;4.88;;;21.80;52.30;;;;;;5045900;28;20664;-36
2022/12/18 07:39:26;;;;;;;5.78;5.13;;;22.00;52.10;;;;;;5047302;28;20188;-34
2022/12/18 07:44:35;;;;;;;6.43;5.85;;;22.00;52.10;;;;;;5045387;28;20202;-34
2022/12/18 07:47:02;;;;;;;5.78;5.28;;;22.00;51.90;;;;;;5048094;28;20194;-34
2022/12/18 07:49:28;;;;;;;7.43;6.38;;;22.00;51.90;;;;;;5053294;28;20188;-35
2022/12/18 07:51:55;;;;;;;6.50;5.90;;;22.00;52.00;;;;;;5051439;28;20196;-35
2022/12/18 07:54:22;;;;;;;7.25;6.55;;;22.00;52.00;;;;;;5050294;28;20231;-34
2022/12/18 07:56:49;;;;;;;7.47;6.78;;;22.00;51.90;;;;;;5049003;28;20192;-34
2022/12/18 07:59:16;;;;;;;6.53;5.93;;;22.00;51.90;;;;;;5048384;28;20195;-34
2022/12/18 08:01:44;;;;;;;7.10;6.50;;;22.00;52.40;;;;;;5052929;28;20191;-34
2022/12/18 08:04:11;;;;;;;5.93;5.32;;;22.00;51.80;;;;;;5049850;28;20203;-34
2022/12/18 08:06:37;;;;;;;5.95;5.35;;;22.00;51.80;;;;;;5050817;28;20203;-35
2022/12/18 08:09:04;;;;;;;7.93;6.22;;;22.00;51.90;;;;;;5054916;28;20198;-34
2022/12/18 08:11:30;;;;;;;6.22;5.63;;;22.00;51.90;;;;;;5054171;28;20196;-34
2022/12/18 08:13:58;;;;;;;6.38;5.78;;;22.00;51.90;;;;;;5051666;28;20548;-34
2022/12/18 08:16:25;;;;;;;6.80;6.15;;;21.90;51.80;;;;;;5052424;28;20195;-34
2022/12/18 08:18:54;;;;;;;6.07;5.57;;;22.00;51.90;;;;;;5053007;28;20196;-34
2022/12/18 08:21:23;;;;;;;7.05;6.30;;;21.90;51.80;;;;;;5053375;28;20206;-34
2022/12/18 08:23:50;;;;;;;6.43;5.93;;;21.90;51.90;;;;;;5050249;28;20245;-34
2022/12/18 08:26:17;;;;;;;6.10;5.60;;;21.80;51.90;;;;;;5055764;28;20195;-34
2022/12/18 08:28:44;;;;;;;5.28;4.85;;;21.80;51.90;;;;;;5045320;28;20199;-34
2022/12/18 08:31:11;;;;;;;6.78;6.18;;;21.80;52.00;;;;;;5050796;28;20203;-35
2022/12/18 08:33:39;;;;;;;5.90;5.40;;;21.80;51.90;;;;;;5048089;28;20199;-34
2022/12/18 08:36:09;;;;;;;6.85;6.13;;;21.80;52.00;;;;;;5049176;28;20222;-34
2022/12/18 08:38:35;;;;;;;5.53;5.07;;;21.80;52.00;;;;;;5046455;28;20209;-34
2022/12/18 08:41:03;;;;;;;6.40;5.55;;;21.80;52.00;;;;;;5050276;28;20204;-34
2022/12/18 08:46:16;;;;;;;5.82;5.22;;;21.80;52.00;;;;;;5045911;28;20214;-34
2022/12/18 08:48:42;;;;;;;6.50;6.00;;;21.70;52.10;;;;;;5048160;28;20207;-35
2022/12/18 08:51:10;;;;;;;6.35;5.75;;;21.60;52.10;;;;;;5049863;28;20195;-34
2022/12/18 08:53:37;;;;;;;7.68;6.38;;;21.60;52.10;;;;;;5056448;28;20528;-35
2022/12/18 08:56:05;;;;;;;5.97;5.40;;;21.50;52.20;;;;;;5051786;28;20576;-35
2022/12/18 08:58:32;;;;;;;6.47;5.97;;;21.40;52.30;;;;;;5045785;28;20588;-34
2022/12/18 09:01:02;;;;;;;5.18;4.68;;;21.30;53.10;;;;;;5045498;28;20611;-35
2022/12/18 09:03:28;;;;;;;5.57;5.18;;;21.20;52.70;;;;;;5048353;28;20234;-35
2022/12/18 09:05:55;;;;;;;5.18;4.68;;;21.00;52.80;;;;;;5051964;28;20196;-35
2022/12/18 09:08:23;;;;;;;5.45;4.95;;;21.00;53.20;;;;;;5047190;28;20587;-35
2022/12/18 09:10:51;;;;;;;5.68;5.07;;;21.10;53.40;;;;;;5051878;28;20187;-34
2022/12/18 09:13:18;;;;;;;6.90;5.63;;;21.30;53.30;;;;;;5048250;28;20302;-34
2022/12/18 09:15:47;;;;;;;6.25;5.38;;;21.40;53.30;;;;;;5051975;28;20211;-34
2022/12/18 09:18:14;;;;;;;8.43;4.78;;;21.60;53.00;;;;;;5049582;28;20701;-34
2022/12/18 09:20:41;;;;;;;9.95;5.28;;;21.90;52.90;;;;;;5051873;28;20219;-34
2022/12/18 09:23:08;;;;;;;4.93;4.43;;;21.80;52.70;;;;;;5046135;28;20651;-34
2022/12/18 09:25:37;;;;;;;6.30;5.43;;;22.00;52.70;;;;;;5048430;28;20674;-34
2022/12/18 09:28:06;;;;;;;5.95;5.32;;;22.50;52.30;;;;;;5048020;28;20203;-34
2022/12/18 09:30:33;;;;;;;5.93;5.32;;;22.40;51.70;;;;;;5044755;28;20199;-34
2022/12/18 09:33:00;;;;;;;5.90;4.97;;;22.30;51.90;;;;;;5048730;28;20192;-35
2022/12/18 09:35:28;;;;;;;5.07;4.68;;;22.30;51.90;;;;;;5045950;28;20647;-35
2022/12/18 09:37:55;;;;;;;5.55;5.05;;;22.30;51.90;;;;;;5055744;28;20220;-34
2022/12/18 09:40:24;;;;;;;5.60;5.10;;;22.30;51.90;;;;;;5052225;28;20187;-34
2022/12/18 09:42:58;;;;;;;5.03;4.55;;;22.30;51.90;;;;;;5042975;28;20203;-34
2022/12/18 09:45:25;;;;;;;5.20;4.70;;;22.30;52.10;;;;;;5047905;28;22026;-34
2022/12/18 09:47:55;;;;;;;5.68;5.10;;;22.70;51.80;;;;;;5053356;28;20671;-35
2022/12/18 09:50:27;;;;;;;5.13;4.53;;;22.70;51.60;;;;;;5049167;28;20678;-34
2022/12/18 09:52:57;;;;;;;6.22;5.72;;;22.60;51.50;;;;;;5046726;28;20202;-35
2022/12/18 09:55:32;;;;;;;5.97;5.28;;;22.60;51.70;;;;;;5049154;28;20212;-34
2022/12/18 09:58:06;;;;;;;5.47;4.50;;;22.50;51.60;;;;;;5040241;28;20196;-35
2022/12/18 10:00:33;;;;;;;4.80;4.40;;;22.50;51.70;;;;;;5043747;28;20195;-34
2022/12/18 10:03:04;;;;;;;5.28;4.88;;;22.40;51.80;;;;;;5049817;28;20191;-35
2022/12/18 10:05:41;;;;;;;6.07;5.50;;;22.30;51.70;;;;;;5051027;28;20514;-35
2022/12/18 10:08:14;;;;;;;7.18;6.57;;;22.30;51.80;;;;;;5045032;28;20195;-35
2022/12/18 10:10:46;;;;;;;5.30;4.90;;;22.20;51.80;;;;;;5048891;28;20210;-34
2022/12/18 10:13:22;;;;;;;5.75;4.55;;;22.10;51.80;;;;;;5045763;28;20198;-34
2022/12/18 10:16:01;;;;;;;4.85;4.45;;;22.10;51.80;;;;;;5047905;28;20213;-34
2022/12/18 10:18:46;;;;;;;5.38;4.88;;;22.10;51.80;;;;;;5043531;28;20199;-35
2022/12/18 10:21:18;;;;;;;7.10;5.32;;;22.10;51.90;;;;;;5043789;28;20198;-35
2022/12/18 10:23:56;;;;;;;5.32;4.82;;;22.10;51.80;;;;;;5052157;28;20773;-34
2022/12/18 10:26:23;;;;;;;4.65;4.25;;;22.00;51.90;;;;;;5045600;28;20201;-34
2022/12/18 10:28:54;;;;;;;5.13;4.70;;;22.00;51.90;;;;;;5047726;28;20581;-35
2022/12/18 10:31:23;;;;;;;5.32;4.82;;;22.00;51.90;;;;;;5048721;28;20204;-35
2022/12/18 10:33:49;;;;;;;5.50;5.00;;;22.00;51.80;;;;;;5049348;28;20214;-35
2022/12/18 10:36:16;;;;;;;4.68;4.28;;;22.00;51.80;;;;;;5046814;28;20307;-35
2022/12/18 10:38:43;;;;;;;4.90;4.50;;;22.00;51.80;;;;;;5046523;28;20199;-34
2022/12/18 10:41:26;;;;;;;5.13;4.53;;;22.10;51.80;;;;;;5047140;28;20283;-35
2022/12/18 10:44:13;;;;;;;5.50;5.10;;;22.00;51.70;;;;;;5041429;28;20220;-35
2022/12/18 10:46:40;;;;;;;4.95;4.53;;;22.10;51.80;;;;;;5052311;28;20660;-34
2022/12/18 10:49:18;;;;;;;4.82;4.40;;;22.10;51.80;;;;;;5045398;28;20199;-34
2022/12/18 10:51:45;;;;;;;6.05;4.80;;;22.00;51.90;;;;;;5059335;28;20217;-35
2022/12/18 10:54:16;;;;;;;8.98;4.97;;;22.00;52.00;;;;;;5057266;28;20203;-34
2022/12/18 10:56:43;;;;;;;8.68;4.57;;;22.10;52.10;;;;;;5043954;28;20208;-34
2022/12/18 10:59:13;;;;;;;9.70;5.53;;;22.10;52.50;;;;;;5043504;28;20199;-36
2022/12/18 11:01:50;;;;;;;6.35;4.90;;;22.20;52.50;;;;;;5050905;28;20202;-36
2022/12/18 11:04:20;;;;;;;8.40;5.55;;;22.20;52.50;;;;;;5045507;28;20200;-35
2022/12/18 11:06:56;;;;;;;5.50;5.00;;;22.10;52.60;;;;;;5048604;28;20214;-35
2022/12/18 11:09:24;;;;;;;5.93;5.03;;;22.00;53.00;;;;;;5044923;28;20195;-40
2022/12/18 11:11:53;;;;;;;10.68;5.13;;;21.90;53.20;;;;;;5048003;28;20198;-39
2022/12/18 11:14:23;;;;;;;6.18;4.82;;;21.90;53.70;;;;;;5064223;28;20196;-38
2022/12/18 11:16:51;;;;;;;6.20;5.03;;;22.20;53.50;;;;;;5048800;28;20215;-39
2022/12/18 11:19:29;;;;;;;6.72;4.45;;;22.40;53.30;;;;;;5045449;28;20215;-41
2022/12/18 11:21:57;;;;;;;6.10;4.85;;;22.70;53.00;;;;;;5048859;28;20196;-39
2022/12/18 11:24:29;;;;;;;7.63;5.25;;;23.00;52.70;;;;;;5070002;28;20194;-39
2022/12/18 11:26:56;;;;;;;5.60;5.10;;;23.20;52.40;;;;;;5045673;28;20209;-39
2022/12/18 11:29:31;;;;;;;5.45;4.82;;;23.20;52.30;;;;;;5046238;28;20195;-39
2022/12/18 11:32:21;;;;;;;7.05;4.65;;;23.30;52.30;;;;;;5050646;28;20568;-39
2022/12/18 11:34:52;;;;;;;5.30;4.80;;;23.40;52.20;;;;;;5048815;28;20203;-38
2022/12/18 11:37:19;;;;;;;7.18;4.97;;;23.50;52.20;;;;;;5054945;28;20188;-39
2022/12/18 11:39:51;;;;;;;9.52;4.40;;;23.50;52.10;;;;;;5057910;28;20200;-39
2022/12/18 11:42:24;;;;;;;5.93;5.45;;;23.50;52.10;;;;;;5048194;28;20544;-39
2022/12/18 11:44:58;;;;;;;9.63;4.07;;;23.40;52.20;;;;;;5053387;28;20199;-38
2022/12/18 11:47:31;;;;;;;5.05;4.55;;;23.30;52.30;;;;;;5051245;28;20717;-39
2022/12/18 11:50:01;;;;;;;3.95;3.58;;;23.20;52.50;;;;;;5039025;28;20187;-39
2022/12/18 11:52:33;;;;;;;5.50;4.80;;;23.10;52.50;;;;;;5053459;28;20575;-38
2022/12/18 11:55:02;;;;;;;5.88;4.93;;;23.00;52.60;;;;;;5051427;28;20670;-37
2022/12/18 11:57:40;;;;;;;4.38;3.88;;;22.90;52.70;;;;;;5057635;28;20607;-38
2022/12/18 12:00:18;;;;;;;4.55;4.15;;;22.90;52.90;;;;;;5051811;28;20195;-39
2022/12/18 12:03:16;;;;;;;5.30;4.78;;;22.80;52.90;;;;;;5042192;28;20238;-39
2022/12/18 12:05:52;;;;;;;5.45;4.10;;;22.70;53.00;;;;;;5046843;28;20230;-39
2022/12/18 12:08:29;;;;;;;4.00;3.70;;;22.70;53.00;;;;;;5058199;28;20287;-39
2022/12/18 12:11:06;;;;;;;5.38;4.90;;;22.70;53.00;;;;;;5065108;28;20209;-38
2022/12/18 12:13:48;;;;;;;7.13;4.43;;;22.80;53.20;;;;;;5056848;28;20203;-39
2022/12/18 12:16:20;;;;;;;5.82;5.32;;;22.70;53.10;;;;;;5052810;28;20230;-38
2022/12/18 12:19:02;;;;;;;3.80;3.40;;;22.80;53.10;;;;;;5054287;28;20201;-38
2022/12/18 12:21:36;;;;;;;4.93;4.43;;;22.80;53.10;;;;;;5049307;28;20203;-39
2022/12/18 12:24:19;;;;;;;6.40;4.03;;;22.80;53.10;;;;;;5048183;28;20287;-38
2022/12/18 12:26:56;;;;;;;4.22;3.83;;;22.80;53.00;;;;;;5048407;28;20660;-39
2022/12/18 12:29:37;;;;;;;7.07;3.60;;;22.90;53.10;;;;;;5058508;28;20201;-38
2022/12/18 12:32:19;;;;;;;5.20;3.70;;;22.90;53.00;;;;;;5050529;28;20191;-48
2022/12/18 12:34:56;;;;;;;5.85;3.80;;;23.00;53.10;;;;;;5058751;28;20199;-39
2022/12/18 12:37:36;;;;;;;7.55;3.88;;;23.00;53.10;;;;;;5052561;28;20297;-37
2022/12/18 12:40:04;;;;;;;5.18;4.68;;;23.00;53.10;;;;;;5051669;28;20564;-38
2022/12/18 12:45:27;;;;;;;8.35;4.20;;;23.10;53.00;;;;;;5050723;28;20211;-38
2022/12/18 12:47:57;;;;;;;5.15;3.70;;;23.20;53.10;;;;;;5050415;28;20193;-38
2022/12/18 12:50:24;;;;;;;4.15;3.53;;;23.20;53.00;;;;;;5047207;28;20193;-39
2022/12/18 12:52:54;;;;;;;5.57;4.60;;;23.20;53.00;;;;;;5049334;28;20196;-39
2022/12/18 12:55:23;;;;;;;4.10;3.38;;;23.20;53.00;;;;;;5046976;28;20232;-40
2022/12/18 12:58:01;;;;;;;6.80;4.70;;;23.20;53.00;;;;;;5050002;28;21566;-40
2022/12/18 13:00:34;;;;;;;7.25;4.38;;;23.10;53.00;;;;;;5042020;28;20195;-41
2022/12/18 13:03:09;;;;;;;4.88;4.25;;;23.10;53.10;;;;;;5050174;28;20551;-39
2022/12/18 13:05:44;;;;;;;4.68;3.10;;;23.10;53.00;;;;;;5052551;28;20200;-38
2022/12/18 13:08:13;;;;;;;4.90;3.90;;;23.20;53.20;;;;;;5046383;28;20201;-39
2022/12/18 13:10:41;;;;;;;3.97;3.58;;;23.10;53.00;;;;;;5057829;28;20690;-39